Time;durP1;ratioP1;P1;durP2;ratioP2;P2;SDS_P1;SDS_P2;PMS_P1;PMS_P2;Temp;Humidity;BMP_temperature;BMP_pressure;BME280_temperature;BME280_humidity;BME280_pressure;Samples;Min_cycle;Max_cycle;Signal;HPM_P1;HPM_P2
2022/01/27 00:00:38;;;;;;;28.65;13.63;;;5.30;99.90;;;;;;4829386;29;20046;-81
2022/01/27 00:03:18;;;;;;;;;;;5.30;99.90;;;;;;4811248;29;20042;-82
2022/01/27 00:05:52;;;;;;;26.10;12.70;;;5.30;99.90;;;;;;4824851;29;20043;-82
2022/01/27 00:08:27;;;;;;;28.88;14.68;;;5.20;99.90;;;;;;4825252;29;20178;-83
2022/01/27 00:13:25;;;;;;;23.08;12.93;;;5.20;99.90;;;;;;4830425;29;20054;-82
2022/01/27 00:15:59;;;;;;;27.03;12.47;;;5.20;99.90;;;;;;4826857;29;20050;-82
2022/01/27 00:18:25;;;;;;;27.42;12.65;;;5.20;99.90;;;;;;4826637;29;20092;-82
2022/01/27 00:20:51;;;;;;;29.25;12.82;;;5.30;99.90;;;;;;4820472;29;20111;-82
2022/01/27 00:23:16;;;;;;;29.20;13.73;;;5.30;99.90;;;;;;4826919;29;20129;-82
2022/01/27 00:25:42;;;;;;;27.10;12.77;;;5.30;99.90;;;;;;4812624;29;20417;-82
2022/01/27 00:28:08;;;;;;;26.48;12.75;;;5.30;99.90;;;;;;4825896;29;20088;-83
2022/01/27 00:30:35;;;;;;;22.02;11.48;;;5.30;99.90;;;;;;4827470;29;20073;-81
2022/01/27 00:33:03;;;;;;;27.20;13.13;;;5.40;99.90;;;;;;4827307;29;20041;-82
2022/01/27 00:35:30;;;;;;;23.45;12.40;;;5.40;99.90;;;;;;4823767;29;20054;-82
2022/01/27 00:37:55;;;;;;;23.50;11.02;;;5.30;99.90;;;;;;4829077;29;20413;-81
2022/01/27 00:40:22;;;;;;;24.33;11.93;;;5.30;99.90;;;;;;4823332;29;20094;-82
2022/01/27 00:42:48;;;;;;;25.83;12.30;;;5.30;99.90;;;;;;4826445;29;20109;-82
2022/01/27 00:45:13;;;;;;;24.25;11.48;;;5.30;99.90;;;;;;4824428;29;20181;-82
2022/01/27 00:47:39;;;;;;;24.90;12.60;;;5.40;99.90;;;;;;4823841;29;20504;-82
2022/01/27 00:50:05;;;;;;;22.45;10.75;;;5.40;99.90;;;;;;4824528;29;20038;-81
2022/01/27 00:52:39;;;;;;;22.65;12.43;;;5.40;99.90;;;;;;4813108;29;20042;-83
2022/01/27 00:55:07;;;;;;;22.23;11.75;;;5.40;99.90;;;;;;4809025;29;20041;-82
2022/01/27 00:57:52;;;;;;;27.85;12.38;;;5.50;99.90;;;;;;4824033;29;20073;-82
2022/01/27 01:00:24;;;;;;;25.90;9.65;;;5.50;99.90;;;;;;4841267;29;20116;-82
2022/01/27 01:03:05;;;;;;;24.63;11.20;;;5.50;99.90;;;;;;4829111;29;20753;-82
2022/01/27 01:09:06;;;;;;;26.33;11.52;;;5.50;99.90;;;;;;4826051;29;20057;-82
2022/01/27 01:16:24;;;;;;;21.02;11.05;;;5.50;99.90;;;;;;4824800;29;20053;-82
2022/01/27 01:19:19;;;;;;;25.17;12.50;;;5.50;99.90;;;;;;4837902;29;20062;-82
2022/01/27 01:22:07;;;;;;;26.55;12.77;;;5.40;99.90;;;;;;4822522;29;20057;-82
2022/01/27 01:35:05;;;;;;;27.90;13.48;;;5.30;99.90;;;;;;4826263;29;20041;-82
2022/01/27 01:37:31;;;;;;;26.13;13.60;;;5.30;99.90;;;;;;4820415;29;20069;-82
2022/01/27 01:39:56;;;;;;;24.58;10.85;;;5.30;99.90;;;;;;4823458;29;20461;-82
2022/01/27 01:42:22;;;;;;;25.75;12.15;;;5.30;99.90;;;;;;4824406;29;20121;-82
2022/01/27 01:44:48;;;;;;;23.45;11.75;;;5.30;99.90;;;;;;4825020;29;20430;-82
2022/01/27 01:47:15;;;;;;;31.08;12.50;;;5.30;99.90;;;;;;4823695;29;20506;-82
2022/01/27 01:49:40;;;;;;;26.05;12.30;;;5.30;99.90;;;;;;4825420;29;20596;-82
2022/01/27 01:52:07;;;;;;;25.95;12.57;;;5.20;99.90;;;;;;4822683;29;20045;-82
2022/01/27 01:54:34;;;;;;;26.38;12.68;;;5.20;99.90;;;;;;4822538;29;20569;-82
2022/01/27 01:56:59;;;;;;;26.33;12.35;;;5.30;99.90;;;;;;4823208;29;20069;-82
2022/01/27 01:59:25;;;;;;;21.90;11.32;;;5.30;99.90;;;;;;4824759;29;20078;-82
2022/01/27 02:01:51;;;;;;;24.80;13.38;;;5.30;99.90;;;;;;4829418;29;20057;-82
2022/01/27 02:04:17;;;;;;;27.35;12.90;;;5.30;99.90;;;;;;4822018;29;20537;-82
2022/01/27 02:06:52;;;;;;;27.30;12.95;;;5.40;99.90;;;;;;4822167;29;20041;-82
2022/01/27 02:09:45;;;;;;;27.80;13.00;;;5.40;99.90;;;;;;4822519;29;20054;-82
2022/01/27 02:17:59;;;;;;;23.98;10.82;;;5.30;99.90;;;;;;4838179;29;20409;-82
2022/01/27 02:20:24;;;;;;;27.63;13.52;;;5.30;99.90;;;;;;4840845;29;20106;-82
2022/01/27 02:22:50;;;;;;;25.33;13.93;;;5.30;99.90;;;;;;4808532;29;20038;-82
2022/01/27 02:25:17;;;;;;;25.00;11.80;;;5.20;99.90;;;;;;4820540;29;20105;-82
2022/01/27 02:27:43;;;;;;;28.92;13.05;;;5.20;99.90;;;;;;4826818;29;20110;-82
2022/01/27 02:30:09;;;;;;;30.00;12.77;;;5.20;99.90;;;;;;4822076;29;21545;-82
2022/01/27 02:32:35;;;;;;;28.33;12.13;;;5.10;99.90;;;;;;4823676;29;20045;-82
2022/01/27 02:35:02;;;;;;;26.65;13.50;;;5.00;99.90;;;;;;4824134;29;20073;-82
2022/01/27 02:37:28;;;;;;;30.27;13.48;;;5.00;99.90;;;;;;4826001;29;20118;-82
2022/01/27 02:39:55;;;;;;;29.23;13.57;;;5.00;99.90;;;;;;4825591;29;20077;-82
2022/01/27 02:42:24;;;;;;;30.23;13.27;;;5.00;99.90;;;;;;4825064;29;20465;-82
2022/01/27 02:44:53;;;;;;;26.15;13.10;;;5.00;99.90;;;;;;4808020;29;20066;-82
2022/01/27 02:47:20;;;;;;;29.38;15.57;;;5.00;99.90;;;;;;4824728;29;20057;-82
2022/01/27 02:49:46;;;;;;;24.60;11.52;;;5.00;99.90;;;;;;4822557;29;20440;-82
2022/01/27 02:52:12;;;;;;;23.20;11.82;;;5.00;99.90;;;;;;4824334;29;21435;-82
2022/01/27 02:54:38;;;;;;;31.55;15.13;;;5.00;99.90;;;;;;4822290;29;20524;-81
2022/01/27 02:57:04;;;;;;;24.00;11.85;;;5.10;99.90;;;;;;4823217;29;20120;-82
2022/01/27 02:59:30;;;;;;;30.65;14.18;;;5.10;99.90;;;;;;4822986;29;20046;-82
2022/01/27 03:01:55;;;;;;;29.77;13.52;;;5.10;99.90;;;;;;4838805;29;20041;-82
2022/01/27 03:04:22;;;;;;;31.95;12.63;;;5.10;99.90;;;;;;4821111;29;20166;-82
2022/01/27 03:06:49;;;;;;;27.85;11.80;;;5.10;99.90;;;;;;4837936;29;20702;-82
2022/01/27 03:09:14;;;;;;;25.25;12.40;;;5.10;99.90;;;;;;4820811;29;20041;-82
2022/01/27 03:11:45;;;;;;;26.30;12.63;;;5.10;99.90;;;;;;4824381;29;20182;-82
2022/01/27 03:14:12;;;;;;;24.08;12.63;;;5.10;99.90;;;;;;4820904;29;20042;-82
2022/01/27 03:16:38;;;;;;;27.73;12.25;;;5.10;99.90;;;;;;4823878;29;20420;-82
2022/01/27 03:19:04;;;;;;;26.73;13.57;;;5.20;99.90;;;;;;4824585;29;20089;-82
2022/01/27 03:21:30;;;;;;;27.50;12.50;;;5.20;99.90;;;;;;4819989;29;20085;-82
2022/01/27 03:23:56;;;;;;;26.52;13.20;;;5.20;99.90;;;;;;4822573;29;20087;-82
2022/01/27 03:26:22;;;;;;;27.92;14.48;;;5.20;99.90;;;;;;4823230;29;20105;-82
2022/01/27 03:28:48;;;;;;;27.35;13.60;;;5.20;99.90;;;;;;4822758;29;20138;-81
2022/01/27 03:31:14;;;;;;;28.20;14.35;;;5.30;99.90;;;;;;4821857;29;20092;-82
2022/01/27 03:33:41;;;;;;;31.70;14.48;;;5.30;99.90;;;;;;4823701;29;20049;-82
2022/01/27 03:36:06;;;;;;;23.83;12.25;;;5.30;99.90;;;;;;4821810;29;20129;-82
2022/01/27 03:38:32;;;;;;;27.70;12.55;;;5.30;99.90;;;;;;4807395;29;20083;-82
2022/01/27 03:40:59;;;;;;;24.77;12.77;;;5.30;99.90;;;;;;4825948;29;20046;-82
2022/01/27 03:43:25;;;;;;;27.85;13.90;;;5.30;99.90;;;;;;4837871;29;20104;-82
2022/01/27 03:45:50;;;;;;;28.25;12.68;;;5.30;99.90;;;;;;4828049;29;20046;-82
2022/01/27 03:48:16;;;;;;;28.02;13.20;;;5.30;99.90;;;;;;4831141;29;20038;-82
2022/01/27 03:50:42;;;;;;;30.67;14.20;;;5.40;99.90;;;;;;4827443;29;20411;-82
2022/01/27 03:53:07;;;;;;;26.05;13.50;;;5.40;99.90;;;;;;4824967;29;20049;-82
2022/01/27 03:55:33;;;;;;;29.38;13.02;;;5.40;99.90;;;;;;4823240;29;20480;-82
2022/01/27 03:57:58;;;;;;;26.10;12.27;;;5.40;99.90;;;;;;4822768;29;20056;-82
2022/01/27 04:00:24;;;;;;;27.90;12.07;;;5.40;99.90;;;;;;4823652;29;20114;-83
2022/01/27 04:03:01;;;;;;;29.08;14.23;;;5.40;99.90;;;;;;4824499;29;20130;-82
2022/01/27 04:05:33;;;;;;;25.92;12.57;;;5.40;99.90;;;;;;4821564;29;20042;-82
2022/01/27 04:07:58;;;;;;;29.67;12.88;;;5.50;99.90;;;;;;4821664;29;20189;-82
2022/01/27 04:10:24;;;;;;;26.75;12.27;;;5.50;99.90;;;;;;4821825;29;20153;-82
2022/01/27 04:12:50;;;;;;;29.38;12.98;;;5.50;99.90;;;;;;4821953;29;20056;-82
2022/01/27 04:15:16;;;;;;;27.77;12.55;;;5.50;99.90;;;;;;4822680;29;20117;-83
2022/01/27 04:17:41;;;;;;;24.15;12.60;;;5.50;99.90;;;;;;4823211;29;20485;-82
2022/01/27 04:20:07;;;;;;;29.98;13.00;;;5.50;99.90;;;;;;4821065;29;20112;-82
2022/01/27 04:22:33;;;;;;;26.58;13.25;;;5.60;99.90;;;;;;4819221;29;20508;-82
2022/01/27 04:24:58;;;;;;;26.55;12.18;;;5.50;99.90;;;;;;4836193;29;20034;-82
2022/01/27 04:27:30;;;;;;;26.60;13.15;;;5.60;99.90;;;;;;4823327;29;20085;-82
2022/01/27 04:29:55;;;;;;;36.05;12.55;;;5.60;99.90;;;;;;4818567;29;20394;-83
2022/01/27 04:32:26;;;;;;;27.80;12.20;;;5.60;99.90;;;;;;4822768;29;20045;-82
2022/01/27 04:34:58;;;;;;;26.00;12.52;;;5.60;99.90;;;;;;4843010;29;20049;-82
2022/01/27 04:37:25;;;;;;;27.65;12.23;;;5.60;99.90;;;;;;4826840;29;20096;-82
2022/01/27 04:40:04;;;;;;;27.48;12.73;;;5.60;99.90;;;;;;4828793;29;20057;-82
2022/01/27 04:42:46;;;;;;;26.38;12.77;;;5.60;99.90;;;;;;4811150;29;20045;-82
2022/01/27 04:45:14;;;;;;;29.80;13.50;;;5.60;99.90;;;;;;4826268;29;20041;-82
2022/01/27 04:47:44;;;;;;;26.60;12.70;;;5.60;99.90;;;;;;4842126;29;20063;-82
2022/01/27 04:50:10;;;;;;;26.98;11.75;;;5.70;99.90;;;;;;4840806;29;20532;-82
2022/01/27 04:52:40;;;;;;;24.48;13.98;;;5.60;99.90;;;;;;4827584;29;20129;-82
2022/01/27 04:55:10;;;;;;;26.80;11.10;;;5.70;99.90;;;;;;4823361;29;20428;-82
2022/01/27 04:57:41;;;;;;;30.23;12.68;;;5.60;99.90;;;;;;4827362;29;20129;-82
2022/01/27 05:00:10;;;;;;;26.05;12.32;;;5.60;99.90;;;;;;4825170;29;20060;-82
2022/01/27 05:02:43;;;;;;;24.40;11.27;;;5.60;99.90;;;;;;4825145;29;20049;-82
2022/01/27 05:05:09;;;;;;;28.27;11.63;;;5.60;99.90;;;;;;4827644;29;20049;-82
2022/01/27 05:07:35;;;;;;;22.45;10.85;;;5.60;99.90;;;;;;4825160;29;20501;-82
2022/01/27 05:10:09;;;;;;;21.65;11.13;;;5.70;99.90;;;;;;4824517;29;20042;-83
2022/01/27 05:12:42;;;;;;;26.90;11.73;;;5.70;99.90;;;;;;4806754;29;20434;-82
2022/01/27 05:15:08;;;;;;;21.42;10.48;;;5.70;99.90;;;;;;4825446;29;20468;-82
2022/01/27 05:17:34;;;;;;;24.80;12.10;;;5.70;99.90;;;;;;4824761;29;20042;-82
2022/01/27 05:20:00;;;;;;;24.52;11.27;;;5.80;99.90;;;;;;4828656;29;20056;-82
2022/01/27 05:22:25;;;;;;;27.25;11.63;;;5.80;99.90;;;;;;4825425;29;20201;-82
2022/01/27 05:24:51;;;;;;;22.33;11.63;;;5.80;99.90;;;;;;4825576;29;20048;-82
2022/01/27 05:27:17;;;;;;;23.10;10.85;;;5.80;99.90;;;;;;4821949;29;20038;-82
2022/01/27 05:29:43;;;;;;;23.77;10.23;;;5.80;99.90;;;;;;4812281;29;20505;-82
2022/01/27 05:32:08;;;;;;;27.77;12.88;;;5.80;99.90;;;;;;4824247;29;20125;-82
2022/01/27 05:34:34;;;;;;;23.63;10.88;;;5.80;99.90;;;;;;4822200;29;20050;-82
2022/01/27 05:37:00;;;;;;;28.38;11.90;;;5.80;99.90;;;;;;4824420;29;20584;-82
2022/01/27 05:39:25;;;;;;;27.88;11.10;;;5.80;99.90;;;;;;4827429;29;20057;-82
2022/01/27 05:41:51;;;;;;;24.88;10.45;;;5.80;99.90;;;;;;4821370;29;20470;-82
2022/01/27 05:44:17;;;;;;;27.42;10.40;;;5.80;99.90;;;;;;4822878;29;20545;-82
2022/01/27 05:46:42;;;;;;;25.00;11.15;;;5.80;99.90;;;;;;4824837;29;20042;-82
2022/01/27 05:49:08;;;;;;;24.33;11.52;;;5.70;99.90;;;;;;4822475;29;20049;-83
2022/01/27 05:51:34;;;;;;;26.50;12.27;;;5.70;99.90;;;;;;4824899;29;20042;-83
2022/01/27 05:54:00;;;;;;;31.27;12.02;;;5.70;99.90;;;;;;4836141;29;20073;-82
2022/01/27 05:56:25;;;;;;;27.58;11.90;;;5.70;99.90;;;;;;4823166;29;20053;-82
2022/01/27 05:58:51;;;;;;;34.42;11.85;;;5.60;99.90;;;;;;4828961;29;20158;-83
2022/01/27 06:01:17;;;;;;;29.58;11.50;;;5.60;99.90;;;;;;4831141;29;20049;-82
2022/01/27 06:03:42;;;;;;;30.55;11.95;;;5.60;99.90;;;;;;4826484;29;20149;-82
2022/01/27 06:06:08;;;;;;;27.85;11.85;;;5.60;99.90;;;;;;4821407;29;20038;-82
2022/01/27 06:08:34;;;;;;;33.50;13.05;;;5.50;99.90;;;;;;4824680;29;20044;-82
2022/01/27 06:11:00;;;;;;;37.33;14.95;;;5.50;99.90;;;;;;4809559;29;20042;-82
2022/01/27 06:13:26;;;;;;;34.33;12.88;;;5.50;99.90;;;;;;4834327;29;20057;-82
2022/01/27 06:15:52;;;;;;;34.95;13.35;;;5.50;99.90;;;;;;4823720;29;20072;-82
2022/01/27 06:18:17;;;;;;;34.28;13.57;;;5.40;99.90;;;;;;4822590;29;20432;-82
2022/01/27 06:20:44;;;;;;;36.30;14.73;;;5.40;99.90;;;;;;4822071;29;20412;-82
2022/01/27 06:23:11;;;;;;;36.03;14.23;;;5.40;99.90;;;;;;4822952;29;20065;-83
2022/01/27 06:25:37;;;;;;;33.28;13.48;;;5.40;99.90;;;;;;4816077;29;20050;-82
2022/01/27 06:28:03;;;;;;;36.47;13.20;;;5.40;99.90;;;;;;4819799;29;20045;-82
2022/01/27 06:30:28;;;;;;;38.70;13.75;;;5.40;99.90;;;;;;4837138;29;20457;-83
2022/01/27 06:32:54;;;;;;;37.03;14.43;;;5.40;99.90;;;;;;4823122;29;20050;-83
2022/01/27 06:35:20;;;;;;;37.78;15.63;;;5.40;99.90;;;;;;4821903;29;20072;-83
2022/01/27 06:37:47;;;;;;;43.15;14.20;;;5.40;99.90;;;;;;4820648;29;20042;-83
2022/01/27 06:40:14;;;;;;;40.88;15.40;;;5.40;99.90;;;;;;4823589;29;20038;-82
2022/01/27 06:42:41;;;;;;;40.28;15.05;;;5.40;99.90;;;;;;4818571;29;20423;-82
2022/01/27 06:45:07;;;;;;;43.03;15.10;;;5.40;99.90;;;;;;4815238;29;20050;-83
2022/01/27 06:47:33;;;;;;;42.67;15.73;;;5.30;99.90;;;;;;4818628;29;20042;-83
2022/01/27 06:49:59;;;;;;;43.25;15.82;;;5.30;99.90;;;;;;4820278;29;20195;-83
2022/01/27 06:52:27;;;;;;;42.65;15.30;;;5.30;99.90;;;;;;4821389;29;20066;-83
2022/01/27 06:54:55;;;;;;;45.15;15.23;;;5.40;99.90;;;;;;4814755;29;20101;-83
2022/01/27 06:57:21;;;;;;;35.67;14.07;;;5.40;99.90;;;;;;4818222;29;20103;-83
2022/01/27 06:59:46;;;;;;;39.67;15.10;;;5.30;99.90;;;;;;4820960;29;20046;-83
2022/01/27 07:02:12;;;;;;;46.22;16.90;;;5.30;99.90;;;;;;4803208;29;20190;-83
2022/01/27 07:04:38;;;;;;;49.45;17.15;;;5.40;99.90;;;;;;4813452;29;20054;-83
2022/01/27 07:07:03;;;;;;;45.05;16.95;;;5.40;99.90;;;;;;4815406;29;20057;-82
2022/01/27 07:09:29;;;;;;;50.65;16.75;;;5.40;99.90;;;;;;4829886;29;20473;-82
2022/01/27 07:11:54;;;;;;;58.83;17.98;;;5.40;99.90;;;;;;4820740;29;20054;-82
2022/01/27 07:14:20;;;;;;;61.22;19.02;;;5.40;99.90;;;;;;4826462;29;20058;-82
2022/01/27 07:16:46;;;;;;;46.78;15.90;;;5.40;99.90;;;;;;4835516;29;20148;-83
2022/01/27 07:19:11;;;;;;;43.28;17.42;;;5.50;99.90;;;;;;4803623;29;20414;-82
2022/01/27 07:21:37;;;;;;;37.60;14.60;;;5.50;99.90;;;;;;4820807;29;20564;-83
2022/01/27 07:24:03;;;;;;;39.67;15.18;;;5.50;99.90;;;;;;4827611;29;20047;-83
2022/01/27 07:26:29;;;;;;;48.05;16.50;;;5.50;99.90;;;;;;4817716;29;20044;-82
2022/01/27 07:28:56;;;;;;;52.88;17.20;;;5.50;99.90;;;;;;4815466;29;20050;-82
2022/01/27 07:31:23;;;;;;;44.60;13.60;;;5.60;99.90;;;;;;4819938;29;20038;-82
2022/01/27 07:33:49;;;;;;;43.72;15.60;;;5.60;99.90;;;;;;4821556;29;20049;-82
2022/01/27 07:36:15;;;;;;;40.38;15.05;;;5.70;99.90;;;;;;4814058;29;20095;-83
2022/01/27 07:38:42;;;;;;;53.60;17.55;;;5.70;99.90;;;;;;4828239;29;20046;-84
2022/01/27 07:41:08;;;;;;;45.75;15.35;;;5.80;99.90;;;;;;4819230;29;20057;-84
2022/01/27 07:43:33;;;;;;;42.40;14.63;;;5.90;99.90;;;;;;4813129;29;20129;-84
2022/01/27 07:46:00;;;;;;;43.60;13.52;;;5.90;99.90;;;;;;4821696;29;20452;-84
2022/01/27 07:48:26;;;;;;;42.10;13.63;;;6.00;99.90;;;;;;4817801;29;20049;-84
2022/01/27 07:50:52;;;;;;;34.97;11.98;;;6.00;99.90;;;;;;4820579;29;20169;-84
2022/01/27 07:53:18;;;;;;;31.77;10.52;;;6.10;99.90;;;;;;4822020;29;20129;-84
2022/01/27 07:55:43;;;;;;;40.22;11.18;;;6.20;99.90;;;;;;4806718;29;20536;-84
2022/01/27 07:58:09;;;;;;;35.50;12.55;;;6.30;99.90;;;;;;4816826;29;21502;-84
2022/01/27 08:00:36;;;;;;;40.38;12.65;;;6.30;99.90;;;;;;4816012;29;20147;-84
2022/01/27 08:03:03;;;;;;;33.33;11.35;;;6.40;99.90;;;;;;4819701;29;20419;-84
2022/01/27 08:05:28;;;;;;;42.25;12.18;;;6.40;99.90;;;;;;4835025;29;20048;-84
2022/01/27 08:07:54;;;;;;;31.00;10.73;;;6.50;99.90;;;;;;4819295;29;20045;-84
2022/01/27 08:10:20;;;;;;;33.05;12.30;;;6.60;99.90;;;;;;4826403;29;20416;-84
2022/01/27 08:12:46;;;;;;;32.22;11.18;;;6.60;99.90;;;;;;4824380;29;20084;-84
2022/01/27 08:15:12;;;;;;;30.27;10.82;;;6.60;99.90;;;;;;4836880;29;20049;-83
2022/01/27 08:17:38;;;;;;;28.35;11.43;;;6.70;99.90;;;;;;4823042;29;20079;-84
2022/01/27 08:20:05;;;;;;;30.38;10.43;;;6.70;99.90;;;;;;4827048;29;20054;-83
2022/01/27 08:22:32;;;;;;;36.38;11.82;;;6.70;99.90;;;;;;4822829;29;20537;-84
2022/01/27 08:24:57;;;;;;;28.13;10.98;;;6.70;99.90;;;;;;4822507;29;20053;-84
2022/01/27 08:27:28;;;;;;;34.25;11.10;;;6.80;99.90;;;;;;4824839;29;20045;-84
2022/01/27 08:29:59;;;;;;;28.35;10.32;;;6.70;99.90;;;;;;4822385;29;20033;-84
2022/01/27 08:32:34;;;;;;;31.08;11.52;;;6.80;99.90;;;;;;4820949;29;20034;-84
2022/01/27 08:34:59;;;;;;;28.10;9.75;;;6.70;99.90;;;;;;4810649;29;20565;-84
2022/01/27 08:37:25;;;;;;;31.00;9.93;;;6.80;99.90;;;;;;4825582;29;20950;-84
2022/01/27 08:39:51;;;;;;;36.33;11.48;;;6.80;99.90;;;;;;4821576;29;20065;-83
2022/01/27 08:42:16;;;;;;;33.92;12.15;;;6.80;99.90;;;;;;4824358;29;20161;-84
2022/01/27 08:44:42;;;;;;;35.40;9.68;;;6.80;99.90;;;;;;4827856;29;20050;-83
2022/01/27 08:47:11;;;;;;;32.08;10.85;;;6.80;99.90;;;;;;4809866;29;20034;-84
2022/01/27 08:49:37;;;;;;;29.50;9.07;;;6.80;99.90;;;;;;4823702;29;20033;-84
2022/01/27 08:52:03;;;;;;;31.02;10.20;;;6.80;99.90;;;;;;4821408;29;20106;-84
2022/01/27 08:54:29;;;;;;;27.05;8.63;;;6.80;99.90;;;;;;4809129;29;20117;-84
2022/01/27 08:56:54;;;;;;;28.63;10.18;;;6.90;99.90;;;;;;4824357;29;20128;-84
2022/01/27 08:59:20;;;;;;;31.88;9.35;;;6.90;99.90;;;;;;4838414;29;20042;-84
2022/01/27 09:01:46;;;;;;;27.23;8.75;;;6.90;99.90;;;;;;4822581;29;20129;-84
2022/01/27 09:04:12;;;;;;;29.08;8.32;;;6.90;99.90;;;;;;4822077;29;20137;-84
2022/01/27 09:06:38;;;;;;;22.50;8.70;;;7.00;99.90;;;;;;4823694;29;20046;-84
2022/01/27 09:09:05;;;;;;;25.52;9.10;;;7.00;99.90;;;;;;4823127;29;20128;-84
2022/01/27 09:11:32;;;;;;;28.25;7.22;;;7.10;99.90;;;;;;4817781;29;20564;-84
2022/01/27 09:13:59;;;;;;;30.13;8.48;;;7.20;99.90;;;;;;4804260;29;20042;-84
2022/01/27 09:16:27;;;;;;;22.30;7.53;;;7.20;99.90;;;;;;4822181;29;20052;-83
2022/01/27 09:18:53;;;;;;;19.90;6.50;;;7.20;99.90;;;;;;4821011;29;20054;-83
2022/01/27 09:21:23;;;;;;;27.58;7.93;;;7.30;99.90;;;;;;4822125;29;20580;-84
2022/01/27 09:23:50;;;;;;;25.33;7.35;;;7.30;99.90;;;;;;4821997;29;20050;-84
2022/01/27 09:29:02;;;;;;;28.77;7.47;;;7.40;99.90;;;;;;4822557;29;20050;-83
2022/01/27 09:31:27;;;;;;;19.77;7.05;;;7.40;99.90;;;;;;4821566;29;20026;-84
2022/01/27 09:33:53;;;;;;;22.80;6.32;;;7.40;99.90;;;;;;4823849;29;20050;-84
2022/01/27 09:36:19;;;;;;;17.25;5.93;;;7.40;99.90;;;;;;4827454;29;20223;-83
2022/01/27 09:38:44;;;;;;;23.25;6.22;;;7.40;99.90;;;;;;4822162;29;20089;-84
2022/01/27 09:41:11;;;;;;;17.15;6.55;;;7.40;99.90;;;;;;4834975;29;20049;-84
2022/01/27 09:43:37;;;;;;;22.77;5.85;;;7.40;99.90;;;;;;4821528;29;20045;-83
2022/01/27 09:46:06;;;;;;;18.02;6.00;;;7.50;99.90;;;;;;4820849;29;20049;-83
2022/01/27 09:48:39;;;;;;;20.80;6.00;;;7.60;99.90;;;;;;4820202;29;20057;-83
2022/01/27 09:51:25;;;;;;;23.60;5.72;;;7.60;99.90;;;;;;4818537;29;20346;-83
2022/01/27 09:53:52;;;;;;;21.48;5.63;;;7.60;99.90;;;;;;4811044;29;20405;-84
2022/01/27 09:56:19;;;;;;;20.40;5.80;;;7.60;99.90;;;;;;4820621;29;20053;-83
2022/01/27 09:58:45;;;;;;;14.07;4.88;;;7.60;99.90;;;;;;4806630;29;20543;-83
2022/01/27 10:01:10;;;;;;;21.23;5.20;;;7.70;99.90;;;;;;4821751;29;20038;-84
2022/01/27 10:03:58;;;;;;;20.42;6.13;;;7.80;99.90;;;;;;4836368;29;20407;-84
2022/01/27 10:06:32;;;;;;;15.93;5.72;;;7.80;99.90;;;;;;4808250;29;20185;-84
2022/01/27 10:09:29;;;;;;;19.65;4.93;;;7.80;99.90;;;;;;4834139;29;20049;-84
2022/01/27 10:11:54;;;;;;;14.88;4.13;;;7.80;99.90;;;;;;4821680;29;20042;-84
2022/01/27 10:14:36;;;;;;;18.42;4.70;;;7.80;99.90;;;;;;4817223;29;20061;-84
2022/01/27 10:17:13;;;;;;;16.05;4.20;;;7.90;99.90;;;;;;4821242;29;20113;-83
2022/01/27 10:19:39;;;;;;;12.10;4.38;;;7.90;99.90;;;;;;4803819;29;20473;-85
2022/01/27 10:22:13;;;;;;;15.20;4.53;;;8.00;99.90;;;;;;4818220;29;20050;-84
2022/01/27 10:24:39;;;;;;;18.77;4.57;;;8.00;99.90;;;;;;4821241;29;20454;-84
2022/01/27 10:32:50;;;;;;;16.23;4.65;;;8.00;99.90;;;;;;4830770;29;20133;-84
2022/01/27 10:35:20;;;;;;;12.30;4.80;;;7.90;99.90;;;;;;4818663;29;20038;-84
2022/01/27 10:37:56;;;;;;;19.27;5.70;;;8.00;99.90;;;;;;4799524;29;20056;-84
2022/01/27 10:40:35;;;;;;;16.85;4.82;;;7.90;99.90;;;;;;4832246;29;20046;-85
2022/01/27 10:43:14;;;;;;;18.33;4.55;;;7.90;99.90;;;;;;4820068;29;20070;-84
2022/01/27 10:46:15;;;;;;;13.77;4.68;;;7.90;99.90;;;;;;4817677;29;20045;-84
2022/01/27 10:48:47;;;;;;;24.65;5.47;;;7.90;99.90;;;;;;4818964;29;20070;-84
2022/01/27 10:51:30;;;;;;;16.35;4.28;;;8.00;99.90;;;;;;4817207;29;20133;-84
2022/01/27 10:54:05;;;;;;;15.27;4.38;;;8.00;99.90;;;;;;4831140;29;21474;-84
2022/01/27 10:56:40;;;;;;;16.73;5.00;;;8.00;99.90;;;;;;4825500;29;20045;-84
2022/01/27 10:59:12;;;;;;;18.48;5.18;;;8.00;99.90;;;;;;4817512;29;20471;-84
2022/01/27 11:01:49;;;;;;;14.43;4.38;;;8.20;99.90;;;;;;4819875;29;20049;-84
2022/01/27 11:04:19;;;;;;;12.98;4.07;;;8.20;99.90;;;;;;4805214;29;20046;-84
2022/01/27 11:07:00;;;;;;;15.07;4.90;;;8.30;99.90;;;;;;4821445;29;20042;-84
2022/01/27 11:09:29;;;;;;;14.48;4.80;;;8.40;99.90;;;;;;4819955;29;20084;-84
2022/01/27 11:11:56;;;;;;;14.55;4.00;;;8.50;99.90;;;;;;4821399;29;20094;-84
2022/01/27 11:14:25;;;;;;;18.88;4.88;;;8.60;99.90;;;;;;4815794;29;20045;-84
2022/01/27 11:16:56;;;;;;;11.63;3.85;;;8.80;99.90;;;;;;4818976;29;20046;-84
2022/01/27 11:21:56;;;;;;;12.23;3.50;;;9.10;99.90;;;;;;4835407;29;20049;-84
2022/01/27 11:24:31;;;;;;;14.50;3.78;;;9.10;99.90;;;;;;4804050;29;20132;-84
2022/01/27 11:27:01;;;;;;;17.42;4.18;;;9.00;99.90;;;;;;4821345;29;20081;-84
2022/01/27 11:29:29;;;;;;;13.18;3.25;;;9.00;99.90;;;;;;4802791;29;20043;-84
2022/01/27 11:32:37;;;;;;;14.45;3.80;;;9.00;99.90;;;;;;4805495;29;20117;-84
2022/01/27 11:35:16;;;;;;;12.93;2.97;;;9.30;99.90;;;;;;4772785;29;20477;-84
2022/01/27 11:37:48;;;;;;;15.07;3.05;;;9.60;99.90;;;;;;4832828;29;20708;-84
2022/01/27 11:40:13;;;;;;;13.57;3.80;;;9.60;99.90;;;;;;4818612;29;20056;-84
2022/01/27 11:42:54;;;;;;;13.18;2.75;;;9.50;99.90;;;;;;4819252;29;20424;-84
2022/01/27 11:45:23;;;;;;;12.50;2.78;;;9.60;99.90;;;;;;4821879;29;20050;-84
2022/01/27 11:47:58;;;;;;;15.43;2.60;;;9.60;99.90;;;;;;4820925;29;20411;-84
2022/01/27 11:50:33;;;;;;;14.43;3.10;;;9.50;99.90;;;;;;4823105;29;20046;-84
2022/01/27 11:53:01;;;;;;;12.52;3.08;;;9.30;99.90;;;;;;4818763;29;20046;-84
2022/01/27 11:55:37;;;;;;;12.98;3.35;;;9.20;99.90;;;;;;4823166;29;20369;-84
2022/01/27 11:58:13;;;;;;;11.50;3.30;;;9.10;99.90;;;;;;4833447;29;20041;-84
2022/01/27 12:00:39;;;;;;;10.43;3.72;;;9.00;99.90;;;;;;4823228;29;20409;-84
2022/01/27 12:03:09;;;;;;;13.20;3.83;;;9.00;99.90;;;;;;4821785;29;20053;-84
2022/01/27 12:05:41;;;;;;;12.25;3.10;;;9.00;99.90;;;;;;4816543;29;20042;-84
2022/01/27 12:08:13;;;;;;;14.27;3.30;;;9.10;99.90;;;;;;4836950;29;20042;-84
2022/01/27 12:10:46;;;;;;;15.82;3.53;;;9.20;99.90;;;;;;4822974;29;20065;-84
2022/01/27 12:13:25;;;;;;;11.10;2.97;;;9.20;99.90;;;;;;4824403;29;20038;-84
2022/01/27 12:18:59;;;;;;;15.20;3.20;;;9.20;99.90;;;;;;4821130;29;20553;-84
2022/01/27 12:21:28;;;;;;;16.13;2.75;;;9.20;99.90;;;;;;4805793;29;20591;-84
2022/01/27 12:24:17;;;;;;;12.73;2.85;;;9.20;99.90;;;;;;4821233;29;20070;-84
2022/01/27 12:27:06;;;;;;;13.38;3.83;;;9.20;99.90;;;;;;4822571;29;20442;-83
2022/01/27 12:29:41;;;;;;;15.63;3.17;;;9.20;99.90;;;;;;4824281;29;20042;-83
2022/01/27 12:32:20;;;;;;;13.65;2.80;;;9.20;99.90;;;;;;4823969;29;20090;-84
2022/01/27 12:34:51;;;;;;;12.02;3.17;;;9.10;99.90;;;;;;4822521;29;20416;-84
2022/01/27 12:37:20;;;;;;;6.07;2.45;;;9.10;99.90;;;;;;4839701;29;20030;-84
2022/01/27 12:39:55;;;;;;;9.73;2.63;;;9.10;99.90;;;;;;4823581;29;20046;-84
2022/01/27 12:42:26;;;;;;;14.68;2.45;;;9.00;99.90;;;;;;4818430;29;20099;-84
2022/01/27 12:45:08;;;;;;;11.25;2.88;;;9.00;99.90;;;;;;4805970;29;20046;-83
2022/01/27 12:47:38;;;;;;;15.45;3.22;;;9.10;99.90;;;;;;4836440;29;20074;-84
2022/01/27 12:50:12;;;;;;;9.32;2.05;;;9.10;99.90;;;;;;4808839;29;20046;-84
2022/01/27 12:52:43;;;;;;;11.20;2.17;;;9.10;99.90;;;;;;4817314;29;20042;-84
2022/01/27 12:55:17;;;;;;;14.13;1.98;;;9.10;99.90;;;;;;4809099;29;20141;-84
2022/01/27 12:57:44;;;;;;;7.68;1.92;;;9.10;99.90;;;;;;4807738;29;20045;-84
2022/01/27 13:00:12;;;;;;;8.80;1.60;;;9.20;99.90;;;;;;4820817;29;20467;-84
2022/01/27 13:02:39;;;;;;;9.50;2.10;;;9.20;99.90;;;;;;4821152;29;20053;-84
2022/01/27 13:05:06;;;;;;;14.20;1.83;;;9.20;99.90;;;;;;4818988;29;20464;-84
2022/01/27 13:07:36;;;;;;;9.10;1.90;;;9.30;99.90;;;;;;4807268;29;20077;-84
2022/01/27 13:10:10;;;;;;;8.35;2.15;;;9.30;99.90;;;;;;4820713;29;20042;-84
2022/01/27 13:15:15;;;;;;;9.48;1.80;;;9.30;99.90;;;;;;4834332;29;20142;-84
2022/01/27 13:18:08;;;;;;;10.07;1.27;;;9.30;99.90;;;;;;4819447;29;20124;-83
2022/01/27 13:20:46;;;;;;;11.95;1.75;;;9.30;99.90;;;;;;4803871;29;20578;-84
2022/01/27 13:23:27;;;;;;;13.68;1.92;;;9.20;99.90;;;;;;4819118;29;20046;-83
2022/01/27 13:26:04;;;;;;;11.73;1.95;;;9.20;99.90;;;;;;4817167;29;20089;-83
2022/01/27 13:28:33;;;;;;;10.63;1.95;;;9.20;99.90;;;;;;4815914;29;20073;-83
2022/01/27 13:31:03;;;;;;;8.45;0.93;;;9.20;99.90;;;;;;4818572;29;20390;-83
2022/01/27 13:33:34;;;;;;;16.75;2.60;;;9.10;99.90;;;;;;4819775;29;20050;-84